sensor_id;sensor_type;location;lat;lon;timestamp;temperature;humidity
24664;DHT22;12791;50.992;13.788;2022-10-22T03:01:34;11.70;99.90
24664;DHT22;12791;50.992;13.788;2022-10-22T03:04:00;11.50;99.90
24664;DHT22;12791;50.992;13.788;2022-10-22T03:06:27;11.60;99.90
24664;DHT22;12791;50.992;13.788;2022-10-22T03:08:54;11.60;99.90
24664;DHT22;12791;50.992;13.788;2022-10-22T03:11:20;11.70;99.90
24664;DHT22;12791;50.992;13.788;2022-10-22T03:13:47;11.60;99.90
24664;DHT22;12791;50.992;13.788;2022-10-22T03:16:14;11.70;99.90
24664;DHT22;12791;50.992;13.788;2022-10-22T03:18:42;11.70;99.90
24664;DHT22;12791;50.992;13.788;2022-10-22T03:21:12;11.70;99.90
24664;DHT22;12791;50.992;13.788;2022-10-22T03:23:41;11.80;99.90
24664;DHT22;12791;50.992;13.788;2022-10-22T03:26:11;11.80;99.90
24664;DHT22;12791;50.992;13.788;2022-10-22T03:28:39;11.80;99.90
24664;DHT22;12791;50.992;13.788;2022-10-22T03:31:06;11.80;99.90
24664;DHT22;12791;50.992;13.788;2022-10-22T03:33:33;11.80;99.90
24664;DHT22;12791;50.992;13.788;2022-10-22T03:36:01;11.80;99.90
24664;DHT22;12791;50.992;13.788;2022-10-22T03:38:28;11.80;99.90
24664;DHT22;12791;50.992;13.788;2022-10-22T03:40:56;11.80;99.90
24664;DHT22;12791;50.992;13.788;2022-10-22T03:43:23;11.80;99.90
24664;DHT22;12791;50.992;13.788;2022-10-22T03:45:50;11.70;99.90
24664;DHT22;12791;50.992;13.788;2022-10-22T03:48:16;12.00;99.90
24664;DHT22;12791;50.992;13.788;2022-10-22T03:50:43;11.80;99.90
24664;DHT22;12791;50.992;13.788;2022-10-22T03:53:11;11.80;99.90
24664;DHT22;12791;50.992;13.788;2022-10-22T03:55:40;11.80;99.90
24664;DHT22;12791;50.992;13.788;2022-10-22T03:58:07;11.90;99.90
24664;DHT22;12791;50.992;13.788;2022-10-22T04:00:34;11.80;99.90
24664;DHT22;12791;50.992;13.788;2022-10-22T04:03:01;11.90;99.90
24664;DHT22;12791;50.992;13.788;2022-10-22T04:05:28;11.90;99.90
24664;DHT22;12791;50.992;13.788;2022-10-22T04:07:55;11.80;99.90
24664;DHT22;12791;50.992;13.788;2022-10-22T04:10:23;11.80;99.90
24664;DHT22;12791;50.992;13.788;2022-10-22T04:12:49;11.90;99.90
24664;DHT22;12791;50.992;13.788;2022-10-22T04:15:16;11.80;99.90
24664;DHT22;12791;50.992;13.788;2022-10-22T04:17:43;11.80;99.90
24664;DHT22;12791;50.992;13.788;2022-10-22T04:20:10;11.80;99.90
24664;DHT22;12791;50.992;13.788;2022-10-22T04:22:37;11.70;99.90
24664;DHT22;12791;50.992;13.788;2022-10-22T04:25:04;11.80;99.90
24664;DHT22;12791;50.992;13.788;2022-10-22T04:27:33;11.80;99.90
24664;DHT22;12791;50.992;13.788;2022-10-22T04:30:01;11.80;99.90
24664;DHT22;12791;50.992;13.788;2022-10-22T04:32:28;11.70;99.90
24664;DHT22;12791;50.992;13.788;2022-10-22T04:34:55;11.70;99.90
24664;DHT22;12791;50.992;13.788;2022-10-22T04:37:22;12.00;99.90
24664;DHT22;12791;50.992;13.788;2022-10-22T04:39:48;11.60;99.90
24664;DHT22;12791;50.992;13.788;2022-10-22T04:42:15;11.60;99.90
24664;DHT22;12791;50.992;13.788;2022-10-22T04:44:43;11.60;99.90
24664;DHT22;12791;50.992;13.788;2022-10-22T04:47:10;11.60;99.90
24664;DHT22;12791;50.992;13.788;2022-10-22T04:49:37;11.70;99.90
24664;DHT22;12791;50.992;13.788;2022-10-22T04:52:04;11.60;99.90
24664;DHT22;12791;50.992;13.788;2022-10-22T04:54:31;11.70;99.90
24664;DHT22;12791;50.992;13.788;2022-10-22T04:56:58;11.80;99.90
24664;DHT22;12791;50.992;13.788;2022-10-22T04:59:25;11.80;99.90
24664;DHT22;12791;50.992;13.788;2022-10-22T05:01:53;11.70;99.90
24664;DHT22;12791;50.992;13.788;2022-10-22T05:04:19;11.80;99.90
24664;DHT22;12791;50.992;13.788;2022-10-22T05:06:48;11.40;99.90
24664;DHT22;12791;50.992;13.788;2022-10-22T05:09:16;11.80;99.90
24664;DHT22;12791;50.992;13.788;2022-10-22T05:11:44;11.70;99.90
24664;DHT22;12791;50.992;13.788;2022-10-22T05:14:14;11.60;99.90
24664;DHT22;12791;50.992;13.788;2022-10-22T05:16:42;11.60;99.90
24664;DHT22;12791;50.992;13.788;2022-10-22T05:19:16;11.60;99.90
24664;DHT22;12791;50.992;13.788;2022-10-22T05:21:43;11.60;99.90
24664;DHT22;12791;50.992;13.788;2022-10-22T05:24:10;11.60;99.90
24664;DHT22;12791;50.992;13.788;2022-10-22T05:26:37;11.70;99.90
24664;DHT22;12791;50.992;13.788;2022-10-22T05:29:04;11.60;99.90
24664;DHT22;12791;50.992;13.788;2022-10-22T05:31:31;11.60;99.90
24664;DHT22;12791;50.992;13.788;2022-10-22T05:33:57;11.70;99.90
24664;DHT22;12791;50.992;13.788;2022-10-22T05:36:25;11.60;99.90
24664;DHT22;12791;50.992;13.788;2022-10-22T05:38:53;11.60;99.90
24664;DHT22;12791;50.992;13.788;2022-10-22T05:41:21;11.60;99.90
24664;DHT22;12791;50.992;13.788;2022-10-22T05:43:48;11.60;99.90
24664;DHT22;12791;50.992;13.788;2022-10-22T05:46:16;11.60;99.90
24664;DHT22;12791;50.992;13.788;2022-10-22T05:48:43;11.70;99.90
24664;DHT22;12791;50.992;13.788;2022-10-22T05:51:13;11.70;99.90
24664;DHT22;12791;50.992;13.788;2022-10-22T05:53:42;11.60;99.90
24664;DHT22;12791;50.992;13.788;2022-10-22T05:56:11;11.70;99.90
24664;DHT22;12791;50.992;13.788;2022-10-22T05:58:39;11.70;99.90
24664;DHT22;12791;50.992;13.788;2022-10-22T06:01:08;11.90;99.90
24664;DHT22;12791;50.992;13.788;2022-10-22T06:03:36;11.40;99.90
24664;DHT22;12791;50.992;13.788;2022-10-22T06:06:06;11.70;99.90
24664;DHT22;12791;50.992;13.788;2022-10-22T06:08:37;11.70;99.90
24664;DHT22;12791;50.992;13.788;2022-10-22T06:11:06;11.80;99.90
24664;DHT22;12791;50.992;13.788;2022-10-22T06:13:32;11.80;99.90
24664;DHT22;12791;50.992;13.788;2022-10-22T06:15:59;11.80;99.90
24664;DHT22;12791;50.992;13.788;2022-10-22T06:18:26;11.80;99.90
24664;DHT22;12791;50.992;13.788;2022-10-22T06:20:52;11.80;99.90
24664;DHT22;12791;50.992;13.788;2022-10-22T06:23:19;11.80;99.90
24664;DHT22;12791;50.992;13.788;2022-10-22T06:25:55;11.80;99.90
24664;DHT22;12791;50.992;13.788;2022-10-22T06:28:23;11.80;99.90
24664;DHT22;12791;50.992;13.788;2022-10-22T06:30:50;11.80;99.90
24664;DHT22;12791;50.992;13.788;2022-10-22T06:33:16;11.80;99.90
24664;DHT22;12791;50.992;13.788;2022-10-22T06:35:43;12.10;99.90
24664;DHT22;12791;50.992;13.788;2022-10-22T06:38:10;11.80;99.90
24664;DHT22;12791;50.992;13.788;2022-10-22T06:40:37;11.90;99.90
24664;DHT22;12791;50.992;13.788;2022-10-22T06:43:07;11.80;99.90
24664;DHT22;12791;50.992;13.788;2022-10-22T06:45:35;11.40;99.90
24664;DHT22;12791;50.992;13.788;2022-10-22T06:48:02;11.80;99.90
24664;DHT22;12791;50.992;13.788;2022-10-22T06:50:30;11.50;99.90
24664;DHT22;12791;50.992;13.788;2022-10-22T06:52:57;11.80;99.90
24664;DHT22;12791;50.992;13.788;2022-10-22T06:55:23;11.90;99.90
24664;DHT22;12791;50.992;13.788;2022-10-22T06:57:50;11.80;99.90
24664;DHT22;12791;50.992;13.788;2022-10-22T07:00:17;12.10;99.90
24664;DHT22;12791;50.992;13.788;2022-10-22T07:02:49;11.80;99.90
24664;DHT22;12791;50.992;13.788;2022-10-22T07:05:17;11.80;99.90
24664;DHT22;12791;50.992;13.788;2022-10-22T07:07:43;11.90;99.90
24664;DHT22;12791;50.992;13.788;2022-10-22T07:10:10;11.90;99.90
24664;DHT22;12791;50.992;13.788;2022-10-22T07:12:37;11.90;99.90
24664;DHT22;12791;50.992;13.788;2022-10-22T07:15:04;11.90;99.90
24664;DHT22;12791;50.992;13.788;2022-10-22T07:17:31;11.90;99.90
24664;DHT22;12791;50.992;13.788;2022-10-22T07:19:59;11.90;99.90
24664;DHT22;12791;50.992;13.788;2022-10-22T07:22:26;11.90;99.90
24664;DHT22;12791;50.992;13.788;2022-10-22T07:24:53;12.20;99.90
24664;DHT22;12791;50.992;13.788;2022-10-22T07:27:19;12.00;99.90
24664;DHT22;12791;50.992;13.788;2022-10-22T07:29:46;11.90;99.90
24664;DHT22;12791;50.992;13.788;2022-10-22T07:32:13;11.90;99.90
24664;DHT22;12791;50.992;13.788;2022-10-22T07:34:39;11.70;99.90
24664;DHT22;12791;50.992;13.788;2022-10-22T07:37:08;12.00;99.90
24664;DHT22;12791;50.992;13.788;2022-10-22T07:39:34;12.00;99.90
24664;DHT22;12791;50.992;13.788;2022-10-22T07:42:02;12.00;99.90
24664;DHT22;12791;50.992;13.788;2022-10-22T07:44:29;12.00;99.90
24664;DHT22;12791;50.992;13.788;2022-10-22T07:46:56;12.00;99.90
24664;DHT22;12791;50.992;13.788;2022-10-22T07:49:23;12.00;99.90
24664;DHT22;12791;50.992;13.788;2022-10-22T07:51:50;12.00;99.90
24664;DHT22;12791;50.992;13.788;2022-10-22T07:54:18;11.90;99.90
24664;DHT22;12791;50.992;13.788;2022-10-22T07:56:45;12.00;99.90
24664;DHT22;12791;50.992;13.788;2022-10-22T07:59:11;11.90;99.90
24664;DHT22;12791;50.992;13.788;2022-10-22T08:01:38;11.90;99.90
24664;DHT22;12791;50.992;13.788;2022-10-22T08:04:05;11.90;99.90
24664;DHT22;12791;50.992;13.788;2022-10-22T08:06:34;11.90;99.90
24664;DHT22;12791;50.992;13.788;2022-10-22T08:09:03;11.90;99.90
24664;DHT22;12791;50.992;13.788;2022-10-22T08:11:31;11.90;99.90
24664;DHT22;12791;50.992;13.788;2022-10-22T08:13:58;11.90;99.90
24664;DHT22;12791;50.992;13.788;2022-10-22T08:16:25;11.90;99.90
24664;DHT22;12791;50.992;13.788;2022-10-22T08:18:51;11.80;99.90
24664;DHT22;12791;50.992;13.788;2022-10-22T08:21:18;11.80;99.90
24664;DHT22;12791;50.992;13.788;2022-10-22T08:23:45;11.80;99.90
24664;DHT22;12791;50.992;13.788;2022-10-22T08:26:12;11.80;99.90
24664;DHT22;12791;50.992;13.788;2022-10-22T08:28:40;11.80;99.90
24664;DHT22;12791;50.992;13.788;2022-10-22T08:31:07;11.80;99.90
24664;DHT22;12791;50.992;13.788;2022-10-22T08:33:33;11.70;99.90
24664;DHT22;12791;50.992;13.788;2022-10-22T08:36:00;11.50;99.90
24664;DHT22;12791;50.992;13.788;2022-10-22T08:38:27;11.80;99.90
24664;DHT22;12791;50.992;13.788;2022-10-22T08:41:02;11.70;99.90
24664;DHT22;12791;50.992;13.788;2022-10-22T08:43:43;11.70;99.90
24664;DHT22;12791;50.992;13.788;2022-10-22T08:46:22;11.80;99.90
24664;DHT22;12791;50.992;13.788;2022-10-22T08:48:54;11.70;99.90
24664;DHT22;12791;50.992;13.788;2022-10-22T08:51:25;11.80;99.90
24664;DHT22;12791;50.992;13.788;2022-10-22T08:54:05;11.80;99.90
24664;DHT22;12791;50.992;13.788;2022-10-22T08:56:35;11.80;99.90
24664;DHT22;12791;50.992;13.788;2022-10-22T08:59:09;11.70;99.90
24664;DHT22;12791;50.992;13.788;2022-10-22T09:01:40;11.80;99.90
24664;DHT22;12791;50.992;13.788;2022-10-22T09:04:13;11.80;99.90
24664;DHT22;12791;50.992;13.788;2022-10-22T09:06:42;12.00;99.90
24664;DHT22;12791;50.992;13.788;2022-10-22T09:09:14;11.90;99.90
24664;DHT22;12791;50.992;13.788;2022-10-22T09:11:43;12.00;99.90
24664;DHT22;12791;50.992;13.788;2022-10-22T09:14:14;12.00;99.90
24664;DHT22;12791;50.992;13.788;2022-10-22T09:16:54;12.10;99.90
24664;DHT22;12791;50.992;13.788;2022-10-22T09:19:32;12.20;99.90
24664;DHT22;12791;50.992;13.788;2022-10-22T09:22:03;12.10;99.90
24664;DHT22;12791;50.992;13.788;2022-10-22T09:24:37;12.30;99.90
24664;DHT22;12791;50.992;13.788;2022-10-22T09:27:10;12.40;99.90
24664;DHT22;12791;50.992;13.788;2022-10-22T09:29:38;12.30;99.90
24664;DHT22;12791;50.992;13.788;2022-10-22T09:32:05;12.40;99.90
24664;DHT22;12791;50.992;13.788;2022-10-22T09:34:32;12.50;99.90
24664;DHT22;12791;50.992;13.788;2022-10-22T09:37:01;12.50;99.90
24664;DHT22;12791;50.992;13.788;2022-10-22T09:39:31;12.60;99.90
24664;DHT22;12791;50.992;13.788;2022-10-22T09:41:59;12.60;99.90
24664;DHT22;12791;50.992;13.788;2022-10-22T09:44:25;12.70;99.90
24664;DHT22;12791;50.992;13.788;2022-10-22T09:46:54;12.70;99.90
24664;DHT22;12791;50.992;13.788;2022-10-22T09:49:22;12.80;99.90
24664;DHT22;12791;50.992;13.788;2022-10-22T09:51:52;12.80;99.90
24664;DHT22;12791;50.992;13.788;2022-10-22T09:54:21;12.80;99.90
24664;DHT22;12791;50.992;13.788;2022-10-22T09:56:54;12.80;99.90
24664;DHT22;12791;50.992;13.788;2022-10-22T09:59:28;12.80;99.90
24664;DHT22;12791;50.992;13.788;2022-10-22T10:02:03;12.90;99.90
24664;DHT22;12791;50.992;13.788;2022-10-22T10:04:34;12.90;99.90
24664;DHT22;12791;50.992;13.788;2022-10-22T10:07:01;12.90;99.90
24664;DHT22;12791;50.992;13.788;2022-10-22T10:09:28;13.00;99.90
24664;DHT22;12791;50.992;13.788;2022-10-22T10:12:05;13.00;99.90
24664;DHT22;12791;50.992;13.788;2022-10-22T10:14:41;13.10;99.90
24664;DHT22;12791;50.992;13.788;2022-10-22T10:17:18;13.10;99.90
24664;DHT22;12791;50.992;13.788;2022-10-22T10:19:56;13.20;99.90
24664;DHT22;12791;50.992;13.788;2022-10-22T10:22:43;13.30;99.90
24664;DHT22;12791;50.992;13.788;2022-10-22T10:25:30;13.30;99.90
24664;DHT22;12791;50.992;13.788;2022-10-22T10:28:08;13.30;99.90
24664;DHT22;12791;50.992;13.788;2022-10-22T10:30:43;13.30;99.90
24664;DHT22;12791;50.992;13.788;2022-10-22T10:33:22;13.30;99.90
24664;DHT22;12791;50.992;13.788;2022-10-22T10:35:55;13.40;99.90
24664;DHT22;12791;50.992;13.788;2022-10-22T10:41:17;13.40;99.90
24664;DHT22;12791;50.992;13.788;2022-10-22T10:43:55;13.40;99.90
24664;DHT22;12791;50.992;13.788;2022-10-22T10:46:30;13.50;99.90
24664;DHT22;12791;50.992;13.788;2022-10-22T10:49:07;13.50;99.90
24664;DHT22;12791;50.992;13.788;2022-10-22T10:51:45;13.50;99.90
24664;DHT22;12791;50.992;13.788;2022-10-22T10:54:43;13.60;99.90
24664;DHT22;12791;50.992;13.788;2022-10-22T10:57:18;13.60;99.90
24664;DHT22;12791;50.992;13.788;2022-10-22T10:59:59;13.70;99.90
24664;DHT22;12791;50.992;13.788;2022-10-22T11:03:01;13.80;99.90
24664;DHT22;12791;50.992;13.788;2022-10-22T11:05:36;13.80;99.90
24664;DHT22;12791;50.992;13.788;2022-10-22T11:08:09;13.90;99.90
24664;DHT22;12791;50.992;13.788;2022-10-22T11:10:41;13.90;99.90
24664;DHT22;12791;50.992;13.788;2022-10-22T11:13:16;14.00;99.90
24664;DHT22;12791;50.992;13.788;2022-10-22T11:15:46;14.10;99.90
24664;DHT22;12791;50.992;13.788;2022-10-22T11:18:19;14.20;99.90
24664;DHT22;12791;50.992;13.788;2022-10-22T11:20:56;14.20;99.90
24664;DHT22;12791;50.992;13.788;2022-10-22T11:23:33;14.40;99.90
24664;DHT22;12791;50.992;13.788;2022-10-22T11:26:03;14.40;99.90
24664;DHT22;12791;50.992;13.788;2022-10-22T11:28:38;14.40;99.90
24664;DHT22;12791;50.992;13.788;2022-10-22T11:31:12;14.40;99.90
24664;DHT22;12791;50.992;13.788;2022-10-22T11:33:44;14.30;99.90
24664;DHT22;12791;50.992;13.788;2022-10-22T11:36:17;14.30;99.90
24664;DHT22;12791;50.992;13.788;2022-10-22T11:38:46;14.30;99.90
24664;DHT22;12791;50.992;13.788;2022-10-22T11:41:17;14.20;99.90
24664;DHT22;12791;50.992;13.788;2022-10-22T11:44:18;14.30;99.90
24664;DHT22;12791;50.992;13.788;2022-10-22T11:46:55;14.20;99.90
24664;DHT22;12791;50.992;13.788;2022-10-22T11:49:24;14.30;99.90
24664;DHT22;12791;50.992;13.788;2022-10-22T11:52:05;14.30;99.90
24664;DHT22;12791;50.992;13.788;2022-10-22T11:54:40;14.30;99.90
24664;DHT22;12791;50.992;13.788;2022-10-22T11:57:18;14.40;99.90
24664;DHT22;12791;50.992;13.788;2022-10-22T11:59:49;14.40;99.90
24664;DHT22;12791;50.992;13.788;2022-10-22T12:02:38;14.50;99.90
24664;DHT22;12791;50.992;13.788;2022-10-22T12:05:35;14.60;99.90
24664;DHT22;12791;50.992;13.788;2022-10-22T12:08:15;14.60;99.90
24664;DHT22;12791;50.992;13.788;2022-10-22T12:10:59;14.60;99.90
24664;DHT22;12791;50.992;13.788;2022-10-22T12:13:31;14.60;99.90
24664;DHT22;12791;50.992;13.788;2022-10-22T12:16:01;14.60;99.90
24664;DHT22;12791;50.992;13.788;2022-10-22T12:18:34;14.60;99.90
24664;DHT22;12791;50.992;13.788;2022-10-22T12:21:02;14.60;99.90
24664;DHT22;12791;50.992;13.788;2022-10-22T12:23:33;14.70;99.90
24664;DHT22;12791;50.992;13.788;2022-10-22T12:26:02;14.70;99.90
24664;DHT22;12791;50.992;13.788;2022-10-22T12:28:36;14.80;99.90
24664;DHT22;12791;50.992;13.788;2022-10-22T12:31:04;14.80;99.90
24664;DHT22;12791;50.992;13.788;2022-10-22T12:33:31;14.80;99.90
24664;DHT22;12791;50.992;13.788;2022-10-22T12:35:58;14.90;99.90
24664;DHT22;12791;50.992;13.788;2022-10-22T12:38:30;14.80;99.90
24664;DHT22;12791;50.992;13.788;2022-10-22T12:40:57;14.80;99.90
24664;DHT22;12791;50.992;13.788;2022-10-22T12:43:26;14.80;99.90
24664;DHT22;12791;50.992;13.788;2022-10-22T12:45:54;14.80;99.90
24664;DHT22;12791;50.992;13.788;2022-10-22T12:48:24;14.80;99.90
24664;DHT22;12791;50.992;13.788;2022-10-22T12:50:54;14.70;99.90
24664;DHT22;12791;50.992;13.788;2022-10-22T12:53:23;14.70;99.90
24664;DHT22;12791;50.992;13.788;2022-10-22T12:55:53;14.70;99.90
24664;DHT22;12791;50.992;13.788;2022-10-22T12:58:24;14.70;99.90
24664;DHT22;12791;50.992;13.788;2022-10-22T13:00:53;14.80;99.90
24664;DHT22;12791;50.992;13.788;2022-10-22T13:03:28;14.70;99.90
24664;DHT22;12791;50.992;13.788;2022-10-22T13:05:55;14.70;99.90
24664;DHT22;12791;50.992;13.788;2022-10-22T13:08:26;14.80;99.90
24664;DHT22;12791;50.992;13.788;2022-10-22T13:10:54;14.80;99.90
24664;DHT22;12791;50.992;13.788;2022-10-22T13:13:32;14.90;99.90
24664;DHT22;12791;50.992;13.788;2022-10-22T13:16:17;14.90;99.90
24664;DHT22;12791;50.992;13.788;2022-10-22T13:18:45;15.00;99.90
24664;DHT22;12791;50.992;13.788;2022-10-22T13:21:36;15.00;99.90
24664;DHT22;12791;50.992;13.788;2022-10-22T13:24:19;15.10;99.90
24664;DHT22;12791;50.992;13.788;2022-10-22T13:26:50;15.10;99.90
24664;DHT22;12791;50.992;13.788;2022-10-22T13:29:19;15.20;99.90
24664;DHT22;12791;50.992;13.788;2022-10-22T13:31:48;15.20;99.90
24664;DHT22;12791;50.992;13.788;2022-10-22T13:34:17;15.20;99.90
24664;DHT22;12791;50.992;13.788;2022-10-22T13:36:45;15.20;99.90
24664;DHT22;12791;50.992;13.788;2022-10-22T13:39:15;15.30;99.90
24664;DHT22;12791;50.992;13.788;2022-10-22T13:41:43;15.30;99.90
24664;DHT22;12791;50.992;13.788;2022-10-22T13:44:11;15.30;99.90
24664;DHT22;12791;50.992;13.788;2022-10-22T13:46:38;15.30;99.90
24664;DHT22;12791;50.992;13.788;2022-10-22T13:49:13;15.40;99.90
24664;DHT22;12791;50.992;13.788;2022-10-22T13:51:40;15.40;99.90
24664;DHT22;12791;50.992;13.788;2022-10-22T13:54:12;15.40;99.90
24664;DHT22;12791;50.992;13.788;2022-10-22T13:56:39;15.50;99.90
24664;DHT22;12791;50.992;13.788;2022-10-22T13:59:07;15.60;99.90
24664;DHT22;12791;50.992;13.788;2022-10-22T14:01:35;15.50;99.90
24664;DHT22;12791;50.992;13.788;2022-10-22T14:04:04;15.60;99.90
24664;DHT22;12791;50.992;13.788;2022-10-22T14:06:32;15.50;99.90
24664;DHT22;12791;50.992;13.788;2022-10-22T14:09:02;15.60;99.90
24664;DHT22;12791;50.992;13.788;2022-10-22T14:11:29;15.50;99.90
24664;DHT22;12791;50.992;13.788;2022-10-22T14:13:57;15.50;99.90
24664;DHT22;12791;50.992;13.788;2022-10-22T14:16:25;15.50;99.90
24664;DHT22;12791;50.992;13.788;2022-10-22T14:18:54;15.40;99.90
24664;DHT22;12791;50.992;13.788;2022-10-22T14:21:21;15.40;99.90
24664;DHT22;12791;50.992;13.788;2022-10-22T14:23:48;15.30;99.90
24664;DHT22;12791;50.992;13.788;2022-10-22T14:26:20;15.30;99.90
24664;DHT22;12791;50.992;13.788;2022-10-22T14:28:48;15.30;99.90
24664;DHT22;12791;50.992;13.788;2022-10-22T14:31:15;15.30;99.90
24664;DHT22;12791;50.992;13.788;2022-10-22T14:33:42;15.20;99.90
24664;DHT22;12791;50.992;13.788;2022-10-22T14:36:12;15.20;99.90
24664;DHT22;12791;50.992;13.788;2022-10-22T14:38:39;15.20;99.90
24664;DHT22;12791;50.992;13.788;2022-10-22T14:41:15;15.10;99.90
24664;DHT22;12791;50.992;13.788;2022-10-22T14:43:42;15.10;99.90
24664;DHT22;12791;50.992;13.788;2022-10-22T14:46:10;15.10;99.90
24664;DHT22;12791;50.992;13.788;2022-10-22T14:48:37;15.10;99.90
24664;DHT22;12791;50.992;13.788;2022-10-22T14:51:04;15.10;99.90
24664;DHT22;12791;50.992;13.788;2022-10-22T14:53:33;15.10;99.90
24664;DHT22;12791;50.992;13.788;2022-10-22T14:56:00;15.10;99.90
24664;DHT22;12791;50.992;13.788;2022-10-22T14:58:27;15.10;99.90
24664;DHT22;12791;50.992;13.788;2022-10-22T15:00:54;15.20;99.90
24664;DHT22;12791;50.992;13.788;2022-10-22T15:03:20;15.20;99.90
24664;DHT22;12791;50.992;13.788;2022-10-22T15:05:50;15.20;99.90
24664;DHT22;12791;50.992;13.788;2022-10-22T15:08:18;15.20;99.90
24664;DHT22;12791;50.992;13.788;2022-10-22T15:10:56;15.20;99.90
24664;DHT22;12791;50.992;13.788;2022-10-22T15:13:23;15.20;99.90
24664;DHT22;12791;50.992;13.788;2022-10-22T15:15:49;15.20;99.90
24664;DHT22;12791;50.992;13.788;2022-10-22T15:18:16;15.20;99.90
24664;DHT22;12791;50.992;13.788;2022-10-22T15:20:43;15.20;99.90
24664;DHT22;12791;50.992;13.788;2022-10-22T15:23:10;15.20;99.90
24664;DHT22;12791;50.992;13.788;2022-10-22T15:25:37;15.20;99.90
24664;DHT22;12791;50.992;13.788;2022-10-22T15:28:09;15.20;99.90
24664;DHT22;12791;50.992;13.788;2022-10-22T15:30:36;15.20;99.90
24664;DHT22;12791;50.992;13.788;2022-10-22T15:33:03;15.10;99.90
24664;DHT22;12791;50.992;13.788;2022-10-22T15:35:30;15.10;99.90
24664;DHT22;12791;50.992;13.788;2022-10-22T15:37:57;15.10;99.90
24664;DHT22;12791;50.992;13.788;2022-10-22T15:40:23;15.00;99.90
24664;DHT22;12791;50.992;13.788;2022-10-22T15:42:50;15.00;99.90
24664;DHT22;12791;50.992;13.788;2022-10-22T15:45:18;15.00;99.90
24664;DHT22;12791;50.992;13.788;2022-10-22T15:47:47;14.90;99.90
24664;DHT22;12791;50.992;13.788;2022-10-22T15:50:14;14.90;99.90
24664;DHT22;12791;50.992;13.788;2022-10-22T15:52:40;14.90;99.90
24664;DHT22;12791;50.992;13.788;2022-10-22T15:55:07;14.90;99.90
24664;DHT22;12791;50.992;13.788;2022-10-22T15:57:35;14.90;99.90
24664;DHT22;12791;50.992;13.788;2022-10-22T16:00:02;14.80;99.90
24664;DHT22;12791;50.992;13.788;2022-10-22T16:02:30;14.80;99.90
24664;DHT22;12791;50.992;13.788;2022-10-22T16:04:57;14.80;99.90
24664;DHT22;12791;50.992;13.788;2022-10-22T16:07:25;14.70;99.90
24664;DHT22;12791;50.992;13.788;2022-10-22T16:09:54;14.60;99.90
24664;DHT22;12791;50.992;13.788;2022-10-22T16:12:21;14.60;99.90
24664;DHT22;12791;50.992;13.788;2022-10-22T16:14:48;14.60;99.90
24664;DHT22;12791;50.992;13.788;2022-10-22T16:17:15;14.50;99.90
24664;DHT22;12791;50.992;13.788;2022-10-22T16:19:44;14.50;99.90
24664;DHT22;12791;50.992;13.788;2022-10-22T16:22:10;14.40;99.90
24664;DHT22;12791;50.992;13.788;2022-10-22T16:24:38;14.30;99.90
24664;DHT22;12791;50.992;13.788;2022-10-22T16:27:05;14.30;99.90
24664;DHT22;12791;50.992;13.788;2022-10-22T16:29:35;14.30;99.90
24664;DHT22;12791;50.992;13.788;2022-10-22T16:32:02;14.20;99.90
24664;DHT22;12791;50.992;13.788;2022-10-22T16:34:29;14.20;99.90
24664;DHT22;12791;50.992;13.788;2022-10-22T16:36:57;14.10;99.90
24664;DHT22;12791;50.992;13.788;2022-10-22T16:39:24;14.10;99.90
24664;DHT22;12791;50.992;13.788;2022-10-22T16:41:51;14.00;99.90
24664;DHT22;12791;50.992;13.788;2022-10-22T16:44:17;14.00;99.90
24664;DHT22;12791;50.992;13.788;2022-10-22T16:46:44;13.90;99.90
24664;DHT22;12791;50.992;13.788;2022-10-22T16:49:11;13.80;99.90
24664;DHT22;12791;50.992;13.788;2022-10-22T16:51:38;13.80;99.90
24664;DHT22;12791;50.992;13.788;2022-10-22T16:54:06;13.80;99.90
24664;DHT22;12791;50.992;13.788;2022-10-22T16:56:33;13.70;99.90
24664;DHT22;12791;50.992;13.788;2022-10-22T16:59:01;13.80;99.90
24664;DHT22;12791;50.992;13.788;2022-10-22T17:01:27;13.60;99.90
24664;DHT22;12791;50.992;13.788;2022-10-22T17:03:55;13.60;99.90
24664;DHT22;12791;50.992;13.788;2022-10-22T17:06:23;13.50;99.90
24664;DHT22;12791;50.992;13.788;2022-10-22T17:08:50;13.40;99.90
24664;DHT22;12791;50.992;13.788;2022-10-22T17:11:19;13.40;99.90
24664;DHT22;12791;50.992;13.788;2022-10-22T17:13:48;13.30;99.90
24664;DHT22;12791;50.992;13.788;2022-10-22T17:16:18;13.20;99.90
24664;DHT22;12791;50.992;13.788;2022-10-22T17:18:45;13.20;99.90
24664;DHT22;12791;50.992;13.788;2022-10-22T17:21:13;13.20;99.90
24664;DHT22;12791;50.992;13.788;2022-10-22T17:23:40;13.20;99.90
24664;DHT22;12791;50.992;13.788;2022-10-22T17:26:11;13.10;99.90
24664;DHT22;12791;50.992;13.788;2022-10-22T17:28:40;13.10;99.90
24664;DHT22;12791;50.992;13.788;2022-10-22T17:31:09;13.20;99.90
24664;DHT22;12791;50.992;13.788;2022-10-22T17:33:37;13.10;99.90
24664;DHT22;12791;50.992;13.788;2022-10-22T17:36:05;13.10;99.90
24664;DHT22;12791;50.992;13.788;2022-10-22T17:38:33;13.10;99.90
24664;DHT22;12791;50.992;13.788;2022-10-22T17:41:00;13.00;99.90
24664;DHT22;12791;50.992;13.788;2022-10-22T17:43:26;13.00;99.90
24664;DHT22;12791;50.992;13.788;2022-10-22T17:46:03;13.00;99.90
24664;DHT22;12791;50.992;13.788;2022-10-22T17:48:30;12.90;99.90
24664;DHT22;12791;50.992;13.788;2022-10-22T17:50:57;12.90;99.90
24664;DHT22;12791;50.992;13.788;2022-10-22T17:53:24;12.90;99.90
24664;DHT22;12791;50.992;13.788;2022-10-22T17:55:58;12.80;99.90
24664;DHT22;12791;50.992;13.788;2022-10-22T17:58:25;12.80;99.90
24664;DHT22;12791;50.992;13.788;2022-10-22T18:00:52;12.80;99.90
24664;DHT22;12791;50.992;13.788;2022-10-22T18:03:20;12.70;99.90
24664;DHT22;12791;50.992;13.788;2022-10-22T18:05:47;12.70;99.90
24664;DHT22;12791;50.992;13.788;2022-10-22T18:08:14;12.70;99.90
24664;DHT22;12791;50.992;13.788;2022-10-22T18:10:41;12.70;99.90
24664;DHT22;12791;50.992;13.788;2022-10-22T18:13:08;12.60;99.90
24664;DHT22;12791;50.992;13.788;2022-10-22T18:15:35;12.60;99.90
24664;DHT22;12791;50.992;13.788;2022-10-22T18:18:02;12.60;99.90
24664;DHT22;12791;50.992;13.788;2022-10-22T18:20:30;12.60;99.90
24664;DHT22;12791;50.992;13.788;2022-10-22T18:22:57;12.70;99.90
24664;DHT22;12791;50.992;13.788;2022-10-22T18:25:24;12.50;99.90
24664;DHT22;12791;50.992;13.788;2022-10-22T18:27:50;12.40;99.90
24664;DHT22;12791;50.992;13.788;2022-10-22T18:30:17;12.40;99.90
24664;DHT22;12791;50.992;13.788;2022-10-22T18:32:44;12.40;99.90